Time;durP1;ratioP1;P1;durP2;ratioP2;P2;SDS_P1;SDS_P2;PMS_P1;PMS_P2;Temp;Humidity;BMP_temperature;BMP_pressure;BME280_temperature;BME280_humidity;BME280_pressure;Samples;Min_cycle;Max_cycle;Signal;HPM_P1;HPM_P2
2023/09/20 00:01:23;;;;;;;4.83;3.20;;;;;;;17.07;62.81;96222.31;4969849;28;20208;-69
2023/09/20 00:03:49;;;;;;;4.67;2.50;;;;;;;17.11;62.49;96217.63;4974555;28;20260;-69
2023/09/20 00:06:17;;;;;;;5.40;3.00;;;;;;;17.02;62.67;96216.50;4988625;28;20514;-70
2023/09/20 00:08:46;;;;;;;4.30;3.10;;;;;;;17.02;62.81;96226.25;4988931;28;20204;-70
2023/09/20 00:11:15;;;;;;;3.80;3.07;;;;;;;17.04;62.36;96217.22;4988900;28;20973;-69
2023/09/20 00:13:43;;;;;;;5.93;3.17;;;;;;;16.98;62.28;96217.66;4988952;28;20423;-70
2023/09/20 00:16:09;;;;;;;6.23;3.40;;;;;;;16.99;62.46;96222.03;4988378;28;21103;-69
2023/09/20 00:18:38;;;;;;;5.77;3.10;;;;;;;16.88;62.38;96225.44;4988587;28;20423;-69
2023/09/20 00:21:04;;;;;;;5.30;3.93;;;;;;;16.89;62.56;96229.81;4988932;28;20405;-69
2023/09/20 00:23:29;;;;;;;4.50;3.40;;;;;;;16.88;62.63;96222.78;4988928;28;20454;-68
2023/09/20 00:25:55;;;;;;;6.10;3.60;;;;;;;17.03;61.72;96225.28;4988823;28;20204;-68
2023/09/20 00:28:20;;;;;;;4.50;3.20;;;;;;;16.78;62.46;96231.50;4988851;28;20185;-69
2023/09/20 00:30:47;;;;;;;4.63;3.03;;;;;;;16.63;63.20;96226.34;4988700;28;20188;-70
2023/09/20 00:33:13;;;;;;;5.00;2.97;;;;;;;16.63;62.87;96228.09;4988833;28;20173;-70
2023/09/20 00:35:42;;;;;;;6.80;2.73;;;;;;;16.12;64.95;96230.81;4987843;28;20471;-70
2023/09/20 00:38:07;;;;;;;7.37;3.13;;;;;;;15.92;65.90;96226.88;4988294;28;20177;-69
2023/09/20 00:40:35;;;;;;;9.17;2.80;;;;;;;16.15;65.38;96228.78;4988583;28;20411;-69
2023/09/20 00:43:04;;;;;;;3.77;2.43;;;;;;;16.24;64.84;96232.59;4988357;28;20204;-69
2023/09/20 00:45:29;;;;;;;13.20;3.30;;;;;;;16.29;65.10;96231.31;4987971;28;20416;-69
2023/09/20 00:47:57;;;;;;;6.97;3.43;;;;;;;16.45;63.89;96228.47;4987983;28;20444;-69
2023/09/20 00:50:27;;;;;;;4.43;2.60;;;;;;;16.56;63.13;96222.44;4988403;28;20234;-69
2023/09/20 00:52:54;;;;;;;3.90;3.07;;;;;;;16.53;63.27;96222.63;4987974;28;20534;-69
2023/09/20 00:55:23;;;;;;;3.33;2.57;;;;;;;16.70;62.83;96229.38;4987859;28;20905;-70
2023/09/20 00:57:52;;;;;;;10.07;4.03;;;;;;;16.68;62.76;96223.34;4987802;28;20459;-69
2023/09/20 01:00:27;;;;;;;4.40;2.33;;;;;;;16.68;62.80;96212.75;4988020;28;20420;-69
2023/09/20 01:02:54;;;;;;;4.60;2.77;;;;;;;16.60;63.01;96220.38;4988289;28;20403;-70
2023/09/20 01:05:21;;;;;;;6.00;2.70;;;;;;;16.51;63.64;96214.81;4970336;28;20452;-70
2023/09/20 01:07:51;;;;;;;6.07;3.60;;;;;;;16.44;64.63;96213.53;4968400;28;20487;-70
2023/09/20 01:10:22;;;;;;;4.10;3.30;;;;;;;16.41;65.23;96216.38;4968623;28;20425;-70
2023/09/20 01:12:48;;;;;;;4.53;4.00;;;;;;;16.44;64.83;96218.84;4968683;28;20453;-70
2023/09/20 01:15:13;;;;;;;4.77;3.37;;;;;;;16.43;65.29;96213.63;4968070;28;20911;-70
2023/09/20 01:17:45;;;;;;;3.67;3.33;;;;;;;16.46;65.19;96205.47;4968444;28;20256;-69
2023/09/20 01:20:19;;;;;;;10.30;4.20;;;;;;;16.42;64.96;96207.50;4968490;28;20180;-69
2023/09/20 01:22:50;;;;;;;6.13;3.33;;;;;;;16.40;65.22;96203.28;4968480;28;20408;-69
2023/09/20 01:25:24;;;;;;;6.10;3.07;;;;;;;16.48;64.80;96204.41;4968234;28;20460;-71
2023/09/20 01:27:56;;;;;;;8.10;3.40;;;;;;;16.41;64.49;96204.94;4968420;28;20425;-69
2023/09/20 01:30:25;;;;;;;6.97;3.93;;;;;;;16.45;64.26;96206.44;4968280;28;20417;-70
2023/09/20 01:32:56;;;;;;;7.50;3.10;;;;;;;16.44;64.41;96204.72;4968023;28;20457;-69
2023/09/20 01:35:22;;;;;;;8.90;3.07;;;;;;;16.38;64.00;96208.66;4966995;28;20405;-69
2023/09/20 01:37:51;;;;;;;13.13;3.40;;;;;;;16.35;63.73;96206.25;4967826;28;20927;-70
2023/09/20 01:40:23;;;;;;;5.03;3.13;;;;;;;16.22;64.58;96197.44;4968005;28;20630;-71
2023/09/20 01:42:49;;;;;;;5.23;2.70;;;;;;;16.20;64.37;96194.06;4967889;28;20423;-69
2023/09/20 01:45:16;;;;;;;7.67;2.80;;;;;;;16.23;64.15;96192.06;4967451;28;20986;-69
2023/09/20 01:48:00;;;;;;;5.63;3.00;;;;;;;16.29;63.36;96191.59;4967610;28;20648;-69
2023/09/20 01:50:26;;;;;;;12.67;4.30;;;;;;;16.26;63.20;96185.69;4967693;28;20413;-69
2023/09/20 01:52:56;;;;;;;12.23;3.23;;;;;;;16.22;63.84;96181.56;4968037;28;20460;-69
2023/09/20 01:55:24;;;;;;;6.13;3.27;;;;;;;16.24;63.17;96184.94;4968741;28;20424;-70
2023/09/20 01:57:56;;;;;;;4.50;2.67;;;;;;;16.29;63.18;96172.22;4968225;28;20448;-70
2023/09/20 02:00:29;;;;;;;3.57;3.07;;;;;;;16.21;63.52;96174.59;4968148;28;20429;-71
2023/09/20 02:03:00;;;;;;;4.37;3.10;;;;;;;16.16;63.81;96180.19;4968081;28;20441;-72
2023/09/20 02:05:26;;;;;;;5.20;2.73;;;;;;;16.13;63.62;96183.03;4985820;28;20411;-68
2023/09/20 02:07:54;;;;;;;4.33;2.80;;;;;;;16.06;63.84;96180.00;4987506;28;20420;-69
2023/09/20 02:10:20;;;;;;;6.33;3.63;;;;;;;16.08;63.86;96178.06;4987241;28;20416;-69
2023/09/20 02:12:59;;;;;;;6.63;3.00;;;;;;;16.01;63.79;96186.53;4987111;28;20539;-68
2023/09/20 02:15:27;;;;;;;3.60;2.70;;;;;;;15.87;64.53;96180.41;4986746;28;20422;-70
2023/09/20 02:17:53;;;;;;;4.47;2.90;;;;;;;15.93;63.96;96173.00;4986584;28;20431;-69
2023/09/20 02:20:20;;;;;;;5.50;3.70;;;;;;;15.94;63.81;96172.88;4986925;28;20408;-68
2023/09/20 02:22:48;;;;;;;3.47;2.30;;;;;;;15.85;63.89;96179.66;4986607;28;20165;-69
2023/09/20 02:25:14;;;;;;;3.83;3.00;;;;;;;15.65;65.16;96182.78;4986455;28;20478;-68
2023/09/20 02:27:43;;;;;;;7.00;3.80;;;;;;;15.74;65.00;96179.56;4987218;28;20538;-68
2023/09/20 02:30:15;;;;;;;6.63;2.90;;;;;;;15.79;64.58;96174.78;4998076;28;20419;-68
2023/09/20 02:32:44;;;;;;;5.50;3.03;;;;;;;15.91;64.54;96185.50;4995843;28;20483;-69
2023/09/20 02:35:10;;;;;;;8.63;3.50;;;;;;;15.80;64.42;96175.63;4991439;28;20416;-70
2023/09/20 02:37:37;;;;;;;5.27;3.00;;;;;;;15.81;64.23;96177.34;4989975;28;20442;-70
2023/09/20 02:40:12;;;;;;;3.70;2.80;;;;;;;15.78;64.45;96178.41;4986862;28;20426;-69
2023/09/20 02:42:54;;;;;;;7.83;3.27;;;;;;;15.79;64.80;96173.94;4986640;28;20893;-68
2023/09/20 02:45:20;;;;;;;4.87;3.20;;;;;;;15.75;65.11;96178.59;4987146;28;20420;-70
2023/09/20 02:47:47;;;;;;;6.27;3.27;;;;;;;15.83;65.05;96181.56;4990544;28;20642;-68
2023/09/20 02:50:14;;;;;;;3.77;2.77;;;;;;;15.79;65.03;96182.72;4990710;28;20423;-68
2023/09/20 02:52:40;;;;;;;3.40;2.70;;;;;;;15.76;64.74;96179.47;4990919;28;20970;-66
2023/09/20 02:55:07;;;;;;;5.00;2.53;;;;;;;15.66;64.94;96176.53;4990512;28;20863;-69
2023/09/20 02:57:39;;;;;;;7.97;2.97;;;;;;;15.76;64.59;96169.72;4990193;28;20511;-68
2023/09/20 03:00:15;;;;;;;6.93;3.00;;;;;;;15.71;64.75;96170.97;4990619;28;20416;-69
2023/09/20 03:02:53;;;;;;;5.50;3.80;;;;;;;15.57;64.86;96170.09;4990394;28;20439;-70
2023/09/20 03:05:21;;;;;;;4.80;2.97;;;;;;;15.46;65.25;96167.31;4972935;28;20508;-69
2023/09/20 03:07:49;;;;;;;9.70;3.80;;;;;;;15.48;65.06;96161.94;4970894;28;20463;-69
2023/09/20 03:10:19;;;;;;;3.53;2.70;;;;;;;15.49;65.04;96159.16;4970792;28;20786;-68
2023/09/20 03:12:46;;;;;;;3.97;2.77;;;;;;;15.50;65.03;96160.88;4970565;28;21030;-69
2023/09/20 03:15:21;;;;;;;5.03;3.40;;;;;;;15.38;64.94;96154.59;4970437;28;20923;-70
2023/09/20 03:18:03;;;;;;;4.20;3.07;;;;;;;15.48;64.81;96156.63;4970430;28;20482;-69
2023/09/20 03:20:33;;;;;;;7.00;3.10;;;;;;;15.52;65.15;96150.16;4970456;28;20416;-68
2023/09/20 03:23:00;;;;;;;5.03;3.10;;;;;;;15.52;64.70;96152.81;4970308;28;20408;-69
2023/09/20 03:25:34;;;;;;;8.90;3.97;;;;;;;15.56;64.64;96149.00;4970009;28;20969;-71
2023/09/20 03:27:59;;;;;;;7.63;4.23;;;;;;;15.55;64.81;96142.88;4970367;28;20452;-69
2023/09/20 03:30:27;;;;;;;9.33;3.83;;;;;;;15.54;64.59;96141.19;4970306;28;20425;-69
2023/09/20 03:32:53;;;;;;;9.07;4.20;;;;;;;15.48;64.68;96138.97;4970294;28;20213;-69
2023/09/20 03:35:22;;;;;;;6.57;3.03;;;;;;;15.31;64.89;96136.63;4970019;28;20421;-69
2023/09/20 03:37:47;;;;;;;7.23;3.97;;;;;;;15.44;64.73;96137.47;4969899;28;20304;-68
2023/09/20 03:40:19;;;;;;;5.30;3.27;;;;;;;15.29;65.26;96136.72;4970166;28;20500;-68
2023/09/20 03:42:46;;;;;;;4.13;3.20;;;;;;;15.39;64.38;96139.59;4971206;28;20177;-69
2023/09/20 03:45:15;;;;;;;5.70;3.63;;;;;;;15.41;63.93;96142.97;4970783;28;20822;-70
2023/09/20 03:47:45;;;;;;;5.07;3.20;;;;;;;15.30;64.19;96146.31;4970552;28;20444;-69
2023/09/20 03:50:11;;;;;;;5.40;3.10;;;;;;;15.32;63.89;96144.44;4970485;28;20827;-69
2023/09/20 03:52:37;;;;;;;4.23;2.90;;;;;;;15.38;64.03;96144.03;4970182;28;20547;-71
2023/09/20 03:55:04;;;;;;;7.97;3.67;;;;;;;15.34;63.47;96141.69;4970165;28;20471;-68
2023/09/20 03:57:29;;;;;;;6.73;3.70;;;;;;;15.29;63.91;96134.06;4969160;28;20208;-69
2023/09/20 03:59:57;;;;;;;8.47;4.60;;;;;;;15.27;63.68;96141.25;4970019;28;20421;-69
2023/09/20 04:02:26;;;;;;;5.70;3.57;;;;;;;15.25;63.99;96137.84;4969790;28;20182;-70
2023/09/20 04:04:52;;;;;;;15.20;5.07;;;;;;;15.41;63.51;96135.03;4982969;28;20443;-70
2023/09/20 04:07:19;;;;;;;18.97;6.07;;;;;;;15.29;63.98;96127.94;4988954;28;20436;-69
2023/09/20 04:09:44;;;;;;;12.90;4.73;;;;;;;15.29;64.23;96128.78;4989679;28;20891;-69
2023/09/20 04:12:10;;;;;;;21.13;4.23;;;;;;;15.31;63.62;96132.16;4989128;28;20467;-70
2023/09/20 04:14:36;;;;;;;11.33;3.87;;;;;;;15.30;63.76;96126.97;4989440;28;20199;-69
2023/09/20 04:17:01;;;;;;;10.83;4.13;;;;;;;15.18;63.98;96129.47;4988827;28;20283;-70
2023/09/20 04:19:27;;;;;;;11.33;4.20;;;;;;;15.06;64.37;96134.75;4988801;28;20263;-71
2023/09/20 04:21:53;;;;;;;14.43;4.60;;;;;;;14.91;64.67;96134.81;4988765;28;20204;-69
2023/09/20 04:24:18;;;;;;;6.53;3.97;;;;;;;14.90;64.91;96137.53;4988670;28;20496;-69
2023/09/20 04:26:43;;;;;;;7.57;3.20;;;;;;;14.27;67.10;96139.75;4988578;28;20291;-70
2023/09/20 04:29:10;;;;;;;4.07;2.87;;;;;;;14.27;67.32;96137.13;4988908;28;20169;-70
2023/09/20 04:31:36;;;;;;;8.20;3.20;;;;;;;14.15;67.85;96132.63;4988794;28;20200;-69
2023/09/20 04:34:01;;;;;;;5.80;3.10;;;;;;;14.52;66.71;96127.63;4988897;28;20649;-70
2023/09/20 04:36:29;;;;;;;7.70;4.33;;;;;;;14.72;66.31;96123.75;4988099;28;20204;-70
2023/09/20 04:38:55;;;;;;;18.87;4.20;;;;;;;14.83;65.47;96126.53;4981209;28;20277;-71
2023/09/20 04:41:21;;;;;;;21.93;5.53;;;;;;;14.81;65.71;96118.72;4970471;28;21009;-69
2023/09/20 04:43:47;;;;;;;9.77;4.20;;;;;;;14.78;65.64;96116.25;4968845;28;20173;-70
2023/09/20 04:46:12;;;;;;;11.87;4.20;;;;;;;14.77;66.26;96122.50;4966926;28;20491;-68
2023/09/20 04:48:41;;;;;;;10.73;3.80;;;;;;;14.61;66.71;96125.28;4968343;28;20197;-69
2023/09/20 04:51:06;;;;;;;6.50;3.83;;;;;;;14.74;67.82;96124.47;4968443;28;20541;-69
2023/09/20 04:53:35;;;;;;;6.03;4.03;;;;;;;14.74;67.83;96138.56;4968583;28;20428;-70
2023/09/20 04:56:01;;;;;;;9.40;4.30;;;;;;;14.82;67.33;96132.75;4968459;28;20703;-68
2023/09/20 04:58:26;;;;;;;10.07;4.13;;;;;;;14.75;67.55;96134.94;4968069;28;20451;-69
2023/09/20 05:00:53;;;;;;;5.07;3.70;;;;;;;15.33;76.03;96140.84;4968296;28;20425;-71
2023/09/20 05:03:19;;;;;;;5.37;4.87;;;;;;;16.51;70.73;96132.69;4969375;28;20545;-69
2023/09/20 05:05:47;;;;;;;6.53;3.47;;;;;;;17.22;68.45;96131.97;4987736;28;20423;-69
2023/09/20 05:08:15;;;;;;;6.50;4.20;;;;;;;17.30;61.77;96126.97;4987634;28;20246;-70
2023/09/20 05:10:42;;;;;;;35.37;7.23;;;;;;;15.96;64.92;96128.63;4986170;28;21067;-68
2023/09/20 05:13:08;;;;;;;18.97;5.50;;;;;;;15.36;66.83;96132.72;4985628;28;20465;-70
2023/09/20 05:15:33;;;;;;;5.77;4.10;;;;;;;15.15;67.59;96134.97;4985569;28;20467;-68
2023/09/20 05:17:59;;;;;;;7.20;3.60;;;;;;;15.09;67.75;96137.19;4985547;28;20519;-70
2023/09/20 05:20:25;;;;;;;14.80;4.70;;;;;;;15.11;67.79;96132.66;4973091;28;20189;-72
2023/09/20 05:22:50;;;;;;;10.77;5.00;;;;;;;15.39;66.78;96135.13;4958781;28;20293;-68
2023/09/20 05:25:16;;;;;;;13.40;4.20;;;;;;;15.71;65.43;96134.78;4962787;28;20564;-67
2023/09/20 05:27:43;;;;;;;14.73;5.10;;;;;;;16.32;62.67;96123.50;4964908;28;20212;-69
2023/09/20 05:30:09;;;;;;;15.67;5.00;;;;;;;17.17;59.33;96121.72;4965481;28;20236;-67
2023/09/20 05:32:35;;;;;;;11.13;5.43;;;;;;;17.90;56.85;96120.59;4964755;28;20911;-69
2023/09/20 05:35:01;;;;;;;7.83;4.60;;;;;;;18.60;54.30;96116.00;4965735;28;20439;-70
2023/09/20 05:37:26;;;;;;;8.50;4.37;;;;;;;18.87;53.22;96114.75;4963950;28;21311;-69
2023/09/20 05:39:52;;;;;;;7.70;3.60;;;;;;;19.31;51.89;96112.91;4964116;28;20181;-70
2023/09/20 05:42:17;;;;;;;10.27;4.83;;;;;;;19.67;50.99;96107.13;4963295;28;20197;-68
2023/09/20 05:44:43;;;;;;;8.63;4.20;;;;;;;19.92;49.95;96106.91;4968835;28;20707;-71
2023/09/20 05:47:09;;;;;;;35.83;7.67;;;;;;;20.40;48.80;96101.75;4969243;28;20189;-72
2023/09/20 05:49:35;;;;;;;28.70;6.10;;;;;;;20.75;47.61;96102.31;4966016;28;20460;-69
2023/09/20 05:52:02;;;;;;;7.17;3.80;;;;;;;21.27;46.46;96100.25;4961369;28;20201;-68
2023/09/20 05:54:28;;;;;;;7.77;3.77;;;;;;;21.16;46.46;96103.91;4962979;28;20208;-70
2023/09/20 05:56:54;;;;;;;6.93;4.07;;;;;;;21.54;45.36;96103.09;4965275;28;21307;-70
2023/09/20 05:59:20;;;;;;;9.40;3.60;;;;;;;21.71;44.89;96111.38;4965404;28;20456;-68
2023/09/20 06:01:45;;;;;;;9.33;3.50;;;;;;;22.04;44.25;96114.50;4965742;28;20173;-70
2023/09/20 06:04:10;;;;;;;6.47;3.80;;;;;;;22.87;42.77;96117.25;4971140;28;20235;-69
2023/09/20 06:06:39;;;;;;;5.50;3.67;;;;;;;23.42;41.51;96107.28;4965273;28;20808;-68
2023/09/20 06:09:05;;;;;;;21.47;4.43;;;;;;;23.16;41.96;96109.91;4965322;28;20181;-67
2023/09/20 06:11:31;;;;;;;15.60;5.93;;;;;;;23.81;40.23;96106.97;4961481;28;20492;-67
2023/09/20 06:13:56;;;;;;;12.80;6.20;;;;;;;23.60;40.96;96107.28;4963841;28;20189;-67
2023/09/20 06:16:22;;;;;;;12.43;5.93;;;;;;;24.02;40.23;96108.44;4964399;28;20437;-68
2023/09/20 06:18:49;;;;;;;14.23;6.17;;;;;;;24.44;39.36;96108.50;4964493;28;20555;-69
2023/09/20 06:21:17;;;;;;;26.70;8.30;;;;;;;24.07;39.98;96107.00;4963849;28;20910;-69
2023/09/20 06:23:43;;;;;;;21.80;8.43;;;;;;;24.25;39.67;96112.25;4964735;28;20428;-69
2023/09/20 06:26:12;;;;;;;9.60;5.20;;;;;;;24.39;38.94;96105.47;4964475;28;20451;-69
2023/09/20 06:28:44;;;;;;;10.17;5.10;;;;;;;24.39;39.35;96105.47;4964634;28;20416;-68
2023/09/20 06:31:15;;;;;;;11.20;5.10;;;;;;;25.05;38.54;96103.88;4963469;28;20436;-67
2023/09/20 06:33:46;;;;;;;12.63;5.43;;;;;;;25.54;37.35;96095.09;4964386;28;20911;-65
2023/09/20 06:36:22;;;;;;;11.37;4.87;;;;;;;25.63;37.32;96099.47;4964003;28;21120;-69
2023/09/20 06:38:49;;;;;;;13.90;5.30;;;;;;;25.92;36.63;96096.25;4964587;28;20978;-65
2023/09/20 06:41:15;;;;;;;12.27;4.93;;;;;;;26.10;36.55;96097.91;4964166;28;20463;-66
2023/09/20 06:43:42;;;;;;;6.53;4.90;;;;;;;25.94;36.70;96094.25;4964583;28;21606;-66
2023/09/20 06:46:08;;;;;;;10.33;4.73;;;;;;;25.93;37.11;96091.72;4966864;28;20456;-68
2023/09/20 06:48:33;;;;;;;13.40;5.60;;;;;;;25.54;37.97;96087.88;4966547;28;20424;-66
2023/09/20 06:51:00;;;;;;;8.70;5.00;;;;;;;25.51;38.00;96088.22;4965831;28;20425;-68
2023/09/20 06:53:25;;;;;;;10.70;5.20;;;;;;;25.20;38.54;96087.16;4965109;28;20192;-67
2023/09/20 06:55:51;;;;;;;7.93;4.93;;;;;;;24.71;39.64;96094.06;4965823;28;20425;-67
2023/09/20 06:58:17;;;;;;;14.47;5.90;;;;;;;24.50;40.51;96085.63;4965720;28;20431;-68
2023/09/20 07:00:42;;;;;;;6.87;4.87;;;;;;;23.68;42.03;96085.06;4964977;28;20225;-69
2023/09/20 07:03:09;;;;;;;6.80;5.40;;;;;;;23.33;43.30;96091.31;4964072;28;20603;-66
2023/09/20 07:05:34;;;;;;;6.50;4.60;;;;;;;23.21;43.45;96088.03;4967706;28;20244;-69
2023/09/20 07:08:00;;;;;;;5.50;4.47;;;;;;;23.88;42.02;96078.56;4963936;28;20506;-66
2023/09/20 07:10:29;;;;;;;5.87;4.07;;;;;;;23.22;43.61;96074.50;4961939;28;20240;-70
2023/09/20 07:12:55;;;;;;;5.07;4.20;;;;;;;24.23;41.67;96070.53;4960538;28;21262;-69
2023/09/20 07:15:24;;;;;;;5.40;4.23;;;;;;;24.89;40.68;96068.94;4964213;28;20444;-68
2023/09/20 07:17:58;;;;;;;8.40;3.83;;;;;;;24.32;41.81;96066.06;4962729;28;20237;-68
2023/09/20 07:20:28;;;;;;;6.00;5.30;;;;;;;24.99;40.62;96068.81;4959342;28;20409;-69
2023/09/20 07:22:54;;;;;;;8.80;4.10;;;;;;;24.49;41.32;96067.81;4967092;28;20799;-67
2023/09/20 07:25:20;;;;;;;4.87;3.43;;;;;;;24.29;41.67;96070.72;4966196;28;20425;-71
2023/09/20 07:27:47;;;;;;;7.90;3.47;;;;;;;24.22;41.85;96072.38;4963902;28;20217;-68
2023/09/20 07:30:22;;;;;;;8.50;3.93;;;;;;;24.91;40.70;96073.16;4966353;28;20421;-69
2023/09/20 07:32:51;;;;;;;5.20;3.67;;;;;;;25.00;40.74;96070.50;4967409;28;20464;-68
2023/09/20 07:36:00;;;;;;;4.63;3.40;;;;;;;25.23;40.89;96068.88;4969438;28;20761;-70
2023/09/20 07:38:17;;;;;;;10.43;4.70;;;;;;;25.17;40.94;96066.00;4966960;28;20429;-68
2023/09/20 07:40:43;;;;;;;25.60;9.30;;;;;;;25.31;41.01;96059.97;4966501;28;20503;-69
2023/09/20 07:43:10;;;;;;;6.33;4.10;;;;;;;25.44;40.88;96063.03;4969673;28;20420;-69
2023/09/20 07:45:39;;;;;;;7.20;4.13;;;;;;;25.76;40.31;96056.75;4968138;28;20432;-69
2023/09/20 07:48:12;;;;;;;7.57;4.70;;;;;;;25.71;40.49;96051.06;4970113;28;20487;-69
2023/09/20 07:50:42;;;;;;;10.77;5.27;;;;;;;25.63;40.85;96044.84;4966852;28;20441;-69
2023/09/20 07:53:11;;;;;;;4.40;3.77;;;;;;;26.05;40.00;96049.19;4968303;28;20481;-68
2023/09/20 07:55:48;;;;;;;5.23;4.10;;;;;;;25.95;39.75;96046.69;4966810;28;20563;-70
2023/09/20 07:58:15;;;;;;;11.37;4.00;;;;;;;25.87;40.51;96042.19;4968208;28;20444;-67
2023/09/20 08:00:45;;;;;;;6.23;3.70;;;;;;;25.76;40.66;96047.88;4967465;28;20498;-69
2023/09/20 08:03:12;;;;;;;12.47;4.50;;;;;;;26.05;40.36;96035.72;4969502;28;20418;-67
2023/09/20 08:05:38;;;;;;;5.83;4.00;;;;;;;26.17;40.33;96023.59;4963340;28;20448;-69
2023/09/20 08:08:06;;;;;;;13.77;4.50;;;;;;;26.33;40.21;96030.78;4969634;28;20479;-68
2023/09/20 08:10:33;;;;;;;20.17;5.30;;;;;;;26.46;39.75;96031.06;4969677;28;20428;-69
2023/09/20 08:12:58;;;;;;;9.97;4.60;;;;;;;26.22;40.11;96036.53;4969639;28;20563;-69
2023/09/20 08:15:24;;;;;;;13.77;5.20;;;;;;;26.01;40.61;96031.72;4968147;28;20528;-66
2023/09/20 08:20:37;;;;;;;14.50;4.97;;;;;;;24.51;44.21;96041.69;4969689;28;20283;-69
2023/09/20 09:01:36;;;;;;;6.47;3.80;;;;;;;24.93;43.49;96033.56;4969093;28;20408;-68
2023/09/20 09:04:03;;;;;;;14.10;4.33;;;;;;;25.46;42.49;96033.28;4974721;28;20495;-69
2023/09/20 09:06:30;;;;;;;12.10;3.80;;;;;;;25.42;42.25;96034.63;4968162;28;20441;-67
2023/09/20 09:08:55;;;;;;;8.23;3.60;;;;;;;25.15;42.24;96034.75;4967425;28;20467;-70
2023/09/20 09:11:23;;;;;;;94.33;12.43;;;;;;;25.19;42.64;96031.78;4968173;28;20599;-68
2023/09/20 09:13:49;;;;;;;29.67;4.90;;;;;;;25.76;41.11;96031.75;4968647;28;20603;-68
2023/09/20 09:16:15;;;;;;;21.93;4.07;;;;;;;26.05;40.74;96036.56;4967709;28;20516;-68
2023/09/20 09:18:41;;;;;;;11.63;3.60;;;;;;;25.68;41.35;96029.09;4968225;28;20632;-67
2023/09/20 09:21:07;;;;;;;7.37;3.10;;;;;;;25.41;42.81;96027.59;4967792;28;20279;-69
2023/09/20 09:23:35;;;;;;;8.27;3.50;;;;;;;26.07;41.69;96014.91;4964908;28;20437;-68
2023/09/20 09:26:01;;;;;;;7.87;3.07;;;;;;;26.30;40.37;96015.81;4966751;28;20463;-68
2023/09/20 09:28:26;;;;;;;7.20;3.10;;;;;;;26.59;40.62;96008.97;4966109;28;20437;-68
2023/09/20 09:30:54;;;;;;;6.97;2.93;;;;;;;26.58;40.25;96010.00;4968254;28;20187;-67
2023/09/20 09:33:22;;;;;;;4.60;3.40;;;;;;;26.09;41.03;96007.50;4968328;28;20208;-70
2023/09/20 09:35:48;;;;;;;5.87;2.70;;;;;;;25.60;41.10;96016.47;4968031;28;20425;-67
2023/09/20 09:38:21;;;;;;;5.83;2.70;;;;;;;25.01;42.70;96013.09;4968502;28;20515;-68
2023/09/20 09:40:55;;;;;;;13.37;4.10;;;;;;;24.50;44.12;96014.03;4968445;28;20435;-70
2023/09/20 09:43:30;;;;;;;6.33;3.13;;;;;;;24.64;43.74;96014.41;4969672;28;21036;-68
2023/09/20 09:46:09;;;;;;;4.43;3.30;;;;;;;25.75;41.54;96008.56;4969156;28;20942;-68
2023/09/20 09:48:37;;;;;;;9.97;3.17;;;;;;;25.48;41.27;96004.41;4968145;28;20420;-69
2023/09/20 09:51:05;;;;;;;4.43;2.40;;;;;;;24.74;43.12;96003.53;4968202;28;21053;-69
2023/09/20 09:53:34;;;;;;;3.67;2.77;;;;;;;23.43;45.91;95998.34;4967947;28;20435;-70
2023/09/20 09:56:03;;;;;;;3.20;2.90;;;;;;;23.81;45.70;96002.47;4966865;28;21052;-68
2023/09/20 09:58:29;;;;;;;2.90;2.53;;;;;;;24.83;43.84;95991.78;4967708;28;20833;-69
2023/09/20 10:00:57;;;;;;;9.57;3.60;;;;;;;25.73;42.00;95987.22;4965505;28;20445;-70
2023/09/20 10:03:30;;;;;;;4.37;2.70;;;;;;;26.21;41.07;95975.69;4967350;28;20228;-70
2023/09/20 10:06:18;;;;;;;5.40;3.23;;;;;;;25.81;41.48;95970.25;4966022;28;21280;-70
2023/09/20 10:08:51;;;;;;;6.40;2.53;;;;;;;25.73;41.80;95967.59;4966922;28;20485;-68
2023/09/20 10:11:17;;;;;;;7.77;2.90;;;;;;;26.13;41.06;95972.00;4964438;28;20457;-67
2023/09/20 10:13:44;;;;;;;8.23;3.10;;;;;;;26.20;40.93;95980.22;4965559;28;20523;-68
2023/09/20 10:16:12;;;;;;;18.27;3.43;;;;;;;26.21;40.79;95962.22;4966047;28;20531;-65
2023/09/20 10:18:57;;;;;;;14.67;3.73;;;;;;;26.60;39.78;95960.38;4966233;28;20472;-68
2023/09/20 10:21:26;;;;;;;9.73;3.03;;;;;;;26.57;39.05;95954.50;4966468;28;20427;-68
2023/09/20 10:23:59;;;;;;;5.37;2.20;;;;;;;25.72;39.64;95960.53;4967170;28;20479;-68
2023/09/20 10:26:26;;;;;;;9.27;3.00;;;;;;;25.50;40.89;95951.34;4967005;28;20440;-68
2023/09/20 10:29:17;;;;;;;2.30;2.07;;;;;;;24.51;42.42;95947.78;4964159;28;21137;-68
2023/09/20 10:31:43;;;;;;;20.20;3.70;;;;;;;24.95;42.63;95949.38;4957381;28;20487;-68
2023/09/20 10:34:09;;;;;;;7.97;2.70;;;;;;;25.62;40.99;95941.06;4966021;28;20428;-70
2023/09/20 10:36:35;;;;;;;9.53;2.87;;;;;;;25.72;40.85;95945.22;4965796;28;20209;-68
2023/09/20 10:39:18;;;;;;;12.87;2.90;;;;;;;25.00;42.09;95942.47;4964055;28;20181;-67
2023/09/20 10:41:49;;;;;;;3.10;1.93;;;;;;;24.76;42.29;95931.72;4961309;28;20576;-68
2023/09/20 10:44:28;;;;;;;7.00;2.53;;;;;;;25.39;41.26;95925.66;4965069;28;20515;-68
2023/09/20 10:46:58;;;;;;;4.03;2.57;;;;;;;24.92;42.23;95934.41;4964197;28;20504;-73
2023/09/20 10:49:47;;;;;;;5.70;2.60;;;;;;;24.68;42.61;95922.66;4966626;28;20491;-70
2023/09/20 10:52:32;;;;;;;3.03;2.40;;;;;;;24.15;43.44;95929.25;4966006;28;20491;-70
2023/09/20 10:55:24;;;;;;;4.90;2.30;;;;;;;24.06;43.78;95916.81;4964464;28;20445;-70
2023/09/20 10:57:50;;;;;;;5.27;2.03;;;;;;;24.78;42.59;95909.09;4951183;28;20480;-69
2023/09/20 11:00:25;;;;;;;3.70;2.87;;;;;;;25.41;41.05;95912.06;4964896;28;20437;-68
2023/09/20 11:02:54;;;;;;;3.07;2.03;;;;;;;24.63;41.98;95914.25;4961989;28;20428;-69
2023/09/20 11:05:21;;;;;;;8.47;2.20;;;;;;;24.03;42.92;95907.25;4971541;28;20441;-72
2023/09/20 11:07:47;;;;;;;12.93;3.80;;;;;;;24.49;43.03;95902.34;4967410;28;20452;-70
2023/09/20 11:10:19;;;;;;;5.20;2.30;;;;;;;24.58;42.25;95887.09;4967038;28;21115;-72
2023/09/20 11:12:45;;;;;;;6.50;2.47;;;;;;;24.48;42.50;95898.00;4968611;28;20236;-69
2023/09/20 11:15:10;;;;;;;5.83;2.20;;;;;;;24.22;42.72;95892.72;4967115;28;20744;-71
2023/09/20 11:17:36;;;;;;;4.30;2.20;;;;;;;24.11;43.20;95889.50;4965418;28;20463;-68
2023/09/20 11:20:04;;;;;;;10.47;3.10;;;;;;;24.21;43.01;95887.53;4967009;28;20443;-70
2023/09/20 11:22:31;;;;;;;2.77;2.10;;;;;;;24.41;43.11;95888.06;4968951;28;20186;-69
2023/09/20 11:24:56;;;;;;;9.57;2.90;;;;;;;24.68;42.36;95901.19;4969041;28;20463;-69
2023/09/20 11:27:23;;;;;;;4.30;2.50;;;;;;;24.44;42.91;95883.19;4968497;28;20835;-69
2023/09/20 11:29:49;;;;;;;4.03;2.20;;;;;;;24.49;42.88;95888.09;4965849;28;20291;-69
2023/09/20 11:32:16;;;;;;;7.73;2.00;;;;;;;24.75;41.91;95885.25;4964631;28;20623;-70
2023/09/20 11:34:47;;;;;;;4.23;2.10;;;;;;;25.07;41.40;95883.56;4967806;28;20189;-70
2023/09/20 11:37:18;;;;;;;5.80;1.97;;;;;;;25.14;41.77;95882.72;4967983;28;20452;-71
2023/09/20 11:39:45;;;;;;;4.07;2.03;;;;;;;25.40;40.73;95881.69;4965577;28;20437;-70
2023/09/20 11:42:21;;;;;;;29.40;5.03;;;;;;;25.87;40.09;95875.50;4965554;28;21022;-69
2023/09/20 11:44:55;;;;;;;14.70;3.10;;;;;;;26.10;39.54;95872.88;4967009;28;20428;-69
2023/09/20 11:47:20;;;;;;;15.47;2.20;;;;;;;26.19;39.21;95871.78;4966100;28;20909;-69
2023/09/20 11:49:47;;;;;;;4.80;2.27;;;;;;;25.26;40.97;95871.66;4969498;28;20425;-68
2023/09/20 11:52:20;;;;;;;5.07;1.83;;;;;;;25.28;41.09;95875.84;4967315;28;20914;-69
2023/09/20 11:54:47;;;;;;;11.10;2.47;;;;;;;25.63;40.62;95867.50;4967515;28;20532;-69
2023/09/20 11:57:16;;;;;;;3.20;2.13;;;;;;;25.13;41.82;95856.88;4969116;28;20453;-70
2023/09/20 11:59:41;;;;;;;7.47;2.30;;;;;;;24.94;42.20;95846.50;4969888;28;20425;-68
2023/09/20 12:02:08;;;;;;;4.67;1.90;;;;;;;25.31;41.02;95850.50;4972773;28;20760;-69
2023/09/20 12:04:34;;;;;;;3.57;1.80;;;;;;;25.47;40.66;95847.75;4975376;28;20193;-69
2023/09/20 12:06:59;;;;;;;3.93;2.30;;;;;;;25.75;40.42;95845.47;4967549;28;21094;-68
2023/09/20 12:09:26;;;;;;;9.90;2.67;;;;;;;25.93;39.80;95839.00;4969936;28;20192;-69
2023/09/20 12:11:51;;;;;;;9.87;2.67;;;;;;;26.05;39.48;95840.28;4969895;28;20241;-67
2023/09/20 12:14:17;;;;;;;11.23;3.43;;;;;;;26.12;39.67;95835.84;4969824;28;20471;-70
2023/09/20 12:16:47;;;;;;;4.07;2.37;;;;;;;26.05;39.31;95837.59;4968436;28;20201;-70
2023/09/20 12:19:14;;;;;;;4.20;2.00;;;;;;;26.07;39.34;95832.03;4968662;28;20219;-68